Time;durP1;ratioP1;P1;durP2;ratioP2;P2;SDS_P1;SDS_P2;PMS_P1;PMS_P2;Temp;Humidity;BMP_temperature;BMP_pressure;BME280_temperature;BME280_humidity;BME280_pressure;Samples;Min_cycle;Max_cycle;Signal;HPM_P1;HPM_P2
2023/05/01 00:00:54;;;;;;;28.75;10.07;;;;;;;;;;5071142;28;20033;-60
2023/05/01 00:03:20;;;;;;;21.25;9.75;;;;;;;;;;5070998;28;20059;-59
2023/05/01 00:05:47;;;;;;;18.90;10.15;;;;;;;;;;5070790;28;20369;-61
2023/05/01 00:08:13;;;;;;;17.63;9.45;;;;;;;;;;5071125;28;20020;-59
2023/05/01 00:10:39;;;;;;;19.20;10.10;;;;;;;;;;5071313;28;20017;-61
2023/05/01 00:13:05;;;;;;;17.02;9.60;;;;;;;;;;5071156;28;20021;-58
2023/05/01 00:15:32;;;;;;;17.02;9.43;;;;;;;;;;5052831;28;20039;-59
2023/05/01 00:17:58;;;;;;;18.88;10.13;;;;;;;;;;5071250;28;20052;-61
2023/05/01 00:20:28;;;;;;;20.90;10.27;;;;;;;;;;5052977;28;20102;-61
2023/05/01 00:22:54;;;;;;;22.40;10.15;;;;;;;;;;5070833;28;20399;-59
2023/05/01 00:25:20;;;;;;;19.15;10.30;;;;;;;;;;5070604;28;20028;-59
2023/05/01 00:27:49;;;;;;;18.05;9.57;;;;;;;;;;5070878;28;20095;-60
2023/05/01 00:30:15;;;;;;;21.27;10.20;;;;;;;;;;5070996;28;20029;-60
2023/05/01 00:32:41;;;;;;;17.83;9.32;;;;;;;;;;5053018;28;20051;-61
2023/05/01 00:35:08;;;;;;;19.80;10.52;;;;;;;;;;5070711;28;20032;-58
2023/05/01 00:37:34;;;;;;;22.15;10.68;;;;;;;;;;5071577;28;20033;-59
2023/05/01 00:40:00;;;;;;;18.02;9.40;;;;;;;;;;5057271;28;20070;-59
2023/05/01 00:42:26;;;;;;;17.45;9.68;;;;;;;;;;5075162;28;20025;-59
2023/05/01 00:44:52;;;;;;;16.60;8.65;;;;;;;;;;5056432;28;20103;-60
2023/05/01 00:47:18;;;;;;;19.10;9.02;;;;;;;;;;5056823;28;20531;-61
2023/05/01 00:49:45;;;;;;;17.60;8.63;;;;;;;;;;5074400;28;20023;-59
2023/05/01 00:52:12;;;;;;;18.55;9.20;;;;;;;;;;5075163;28;20038;-64
2023/05/01 00:54:38;;;;;;;20.58;10.10;;;;;;;;;;5074496;28;20017;-59
2023/05/01 00:57:07;;;;;;;17.52;9.57;;;;;;;;;;5056686;28;20056;-59
2023/05/01 00:59:33;;;;;;;19.40;9.48;;;;;;;;;;5074563;28;20020;-60
2023/05/01 01:01:59;;;;;;;18.50;9.55;;;;;;;;;;5074432;28;20061;-59
2023/05/01 01:04:27;;;;;;;17.08;9.00;;;;;;;;;;5074092;28;20036;-61
2023/05/01 01:07:07;;;;;;;18.42;9.57;;;;;;;;;;5074299;28;20032;-57
2023/05/01 01:09:52;;;;;;;19.27;9.98;;;;;;;;;;5074724;28;20036;-59
2023/05/01 01:12:32;;;;;;;17.67;9.18;;;;;;;;;;5074358;28;20021;-61
2023/05/01 01:14:57;;;;;;;16.15;9.45;;;;;;;;;;5073940;28;20028;-61
2023/05/01 01:17:36;;;;;;;18.25;10.05;;;;;;;;;;5056146;28;20027;-61
2023/05/01 01:20:20;;;;;;;17.55;9.73;;;;;;;;;;5074125;28;20024;-56
2023/05/01 01:22:57;;;;;;;16.45;9.40;;;;;;;;;;5074332;28;20275;-61
2023/05/01 01:25:50;;;;;;;17.48;9.38;;;;;;;;;;5074138;28;20020;-59
2023/05/01 01:28:22;;;;;;;16.90;9.40;;;;;;;;;;5074169;28;20104;-59
2023/05/01 01:30:51;;;;;;;18.65;9.60;;;;;;;;;;5074142;28;20042;-62
2023/05/01 01:33:24;;;;;;;19.98;9.30;;;;;;;;;;5074207;28;20082;-61
2023/05/01 01:35:54;;;;;;;18.40;8.98;;;;;;;;;;5073649;28;20044;-61
2023/05/01 01:38:22;;;;;;;16.83;8.85;;;;;;;;;;5055564;28;20071;-61
2023/05/01 01:40:58;;;;;;;17.75;9.05;;;;;;;;;;5073876;28;20032;-61
2023/05/01 01:43:25;;;;;;;19.33;9.10;;;;;;;;;;5073772;28;20036;-61
2023/05/01 01:45:58;;;;;;;17.92;9.20;;;;;;;;;;5073593;28;20082;-60
2023/05/01 01:48:27;;;;;;;49.17;31.63;;;;;;;;;;5073412;28;20021;-59
2023/05/01 01:50:54;;;;;;;17.52;9.48;;;;;;;;;;5072550;28;20029;-61
2023/05/01 01:53:21;;;;;;;19.73;9.10;;;;;;;;;;5073579;28;20104;-62
2023/05/01 01:55:48;;;;;;;16.00;8.25;;;;;;;;;;5073120;28;20036;-57
2023/05/01 01:58:15;;;;;;;21.10;9.70;;;;;;;;;;5073292;28;20028;-59
2023/05/01 02:00:44;;;;;;;15.68;8.50;;;;;;;;;;5073200;28;20032;-61
2023/05/01 02:03:10;;;;;;;17.88;8.70;;;;;;;;;;5073329;28;20032;-60
2023/05/01 02:05:37;;;;;;;19.55;8.90;;;;;;;;;;5054692;28;20082;-59
2023/05/01 02:08:04;;;;;;;19.23;9.30;;;;;;;;;;5073148;28;20032;-58
2023/05/01 02:10:31;;;;;;;16.58;8.57;;;;;;;;;;5073108;28;20036;-59
2023/05/01 02:12:57;;;;;;;20.55;9.77;;;;;;;;;;5055128;28;20478;-61
2023/05/01 02:15:24;;;;;;;20.27;8.98;;;;;;;;;;5072684;28;20056;-57
2023/05/01 02:17:50;;;;;;;17.15;9.32;;;;;;;;;;5054847;28;20024;-61
2023/05/01 02:20:16;;;;;;;20.27;9.82;;;;;;;;;;5055166;28;20067;-59
2023/05/01 02:22:44;;;;;;;19.30;9.02;;;;;;;;;;5072923;28;20044;-59
2023/05/01 02:25:12;;;;;;;20.23;9.50;;;;;;;;;;5072646;28;20545;-58
2023/05/01 02:27:40;;;;;;;20.63;10.25;;;;;;;;;;5072819;28;20031;-61
2023/05/01 02:30:06;;;;;;;19.60;9.15;;;;;;;;;;5072746;28;20405;-62
2023/05/01 02:32:32;;;;;;;19.30;9.40;;;;;;;;;;5072745;28;20032;-59
2023/05/01 02:34:59;;;;;;;19.52;9.35;;;;;;;;;;5072416;28;20035;-60
2023/05/01 02:37:25;;;;;;;19.52;9.70;;;;;;;;;;5072848;28;20104;-58
2023/05/01 02:39:51;;;;;;;22.45;9.18;;;;;;;;;;5072601;28;20060;-60
2023/05/01 02:42:18;;;;;;;20.17;9.48;;;;;;;;;;5072773;28;20460;-61
2023/05/01 02:44:50;;;;;;;20.85;9.50;;;;;;;;;;5072328;28;20028;-59
2023/05/01 02:47:18;;;;;;;18.88;9.50;;;;;;;;;;5072523;28;20518;-59
2023/05/01 02:49:46;;;;;;;17.45;9.40;;;;;;;;;;5072225;28;20028;-59
2023/05/01 02:52:12;;;;;;;;;;;;;;;;;;5072851;28;20054;-62
2023/05/01 02:54:38;;;;;;;19.58;9.18;;;;;;;;;;5072154;28;19905;-59
2023/05/01 02:57:04;;;;;;;17.42;9.60;;;;;;;;;;5072186;28;20435;-61
2023/05/01 02:59:31;;;;;;;19.00;9.27;;;;;;;;;;5072012;28;20040;-61
2023/05/01 03:01:57;;;;;;;17.60;9.45;;;;;;;;;;5054349;28;20046;-61
2023/05/01 03:04:23;;;;;;;16.02;9.27;;;;;;;;;;5071809;28;20093;-61
2023/05/01 03:06:49;;;;;;;20.63;9.30;;;;;;;;;;5071828;28;20025;-62
2023/05/01 03:09:16;;;;;;;19.77;9.38;;;;;;;;;;5071764;28;20025;-59
2023/05/01 03:11:42;;;;;;;18.27;9.10;;;;;;;;;;5072123;28;20040;-62
2023/05/01 03:14:09;;;;;;;19.83;9.10;;;;;;;;;;5053684;28;20043;-56
2023/05/01 03:16:36;;;;;;;18.15;8.70;;;;;;;;;;5071805;28;20112;-60
2023/05/01 03:19:02;;;;;;;19.75;9.02;;;;;;;;;;5071791;28;20039;-61
2023/05/01 03:21:28;;;;;;;17.23;8.73;;;;;;;;;;5071891;28;20028;-60
2023/05/01 03:23:54;;;;;;;18.48;9.20;;;;;;;;;;5071371;28;20017;-59
2023/05/01 03:26:20;;;;;;;19.38;8.95;;;;;;;;;;5071025;28;20030;-59
2023/05/01 03:28:46;;;;;;;18.17;8.98;;;;;;;;;;5053498;28;20035;-61
2023/05/01 03:31:13;;;;;;;19.70;9.35;;;;;;;;;;5071408;28;20070;-59
2023/05/01 03:33:39;;;;;;;16.90;8.63;;;;;;;;;;5053298;28;20063;-53
2023/05/01 03:36:05;;;;;;;20.20;9.30;;;;;;;;;;5071180;28;20387;-57
2023/05/01 03:38:32;;;;;;;18.45;9.75;;;;;;;;;;5071306;28;20400;-61
2023/05/01 03:40:58;;;;;;;21.23;9.60;;;;;;;;;;5071248;28;20393;-59
2023/05/01 03:43:25;;;;;;;18.30;9.57;;;;;;;;;;5071645;28;20024;-60
2023/05/01 03:45:51;;;;;;;19.20;9.55;;;;;;;;;;5070977;28;20118;-61
2023/05/01 03:48:18;;;;;;;18.05;9.00;;;;;;;;;;5071433;28;20017;-60
2023/05/01 03:50:45;;;;;;;16.27;8.70;;;;;;;;;;5071290;28;20092;-60
2023/05/01 03:53:12;;;;;;;16.63;9.70;;;;;;;;;;5071509;28;20431;-60
2023/05/01 03:55:38;;;;;;;17.42;9.30;;;;;;;;;;5071164;28;20051;-58
2023/05/01 03:58:05;;;;;;;17.77;9.30;;;;;;;;;;5071323;28;20518;-58
2023/05/01 04:00:31;;;;;;;18.35;9.80;;;;;;;;;;5071733;28;20051;-57
2023/05/01 04:02:57;;;;;;;18.27;9.23;;;;;;;;;;5071347;28;20039;-61
2023/05/01 04:05:23;;;;;;;17.75;9.30;;;;;;;;;;5070611;28;20112;-62
2023/05/01 04:07:49;;;;;;;18.50;9.27;;;;;;;;;;5070877;28;20036;-61
2023/05/01 04:10:16;;;;;;;19.23;9.68;;;;;;;;;;5070849;28;20040;-62
2023/05/01 04:12:42;;;;;;;20.08;10.50;;;;;;;;;;5070710;28;20029;-59
2023/05/01 04:15:08;;;;;;;19.48;10.00;;;;;;;;;;5070928;28;20055;-61
2023/05/01 04:17:38;;;;;;;18.38;9.48;;;;;;;;;;5053053;28;20552;-58
2023/05/01 04:20:07;;;;;;;19.02;9.70;;;;;;;;;;5070800;28;20476;-58
2023/05/01 04:22:33;;;;;;;19.15;9.50;;;;;;;;;;5070861;28;20409;-59
2023/05/01 04:24:59;;;;;;;17.92;9.60;;;;;;;;;;5070653;28;20107;-59
2023/05/01 04:27:25;;;;;;;17.80;10.50;;;;;;;;;;5052664;28;20484;-59
2023/05/01 04:29:51;;;;;;;18.90;10.43;;;;;;;;;;5070785;28;20040;-61
2023/05/01 04:32:17;;;;;;;19.23;9.55;;;;;;;;;;5053159;28;20063;-61
2023/05/01 04:34:43;;;;;;;17.55;9.85;;;;;;;;;;5071003;28;20036;-59
2023/05/01 04:37:09;;;;;;;16.15;9.63;;;;;;;;;;5069910;28;20127;-60
2023/05/01 04:39:35;;;;;;;17.80;9.73;;;;;;;;;;5050635;28;20080;-59
2023/05/01 04:42:02;;;;;;;19.38;10.20;;;;;;;;;;5051202;28;20147;-59
2023/05/01 04:44:28;;;;;;;17.23;10.18;;;;;;;;;;5032738;28;20383;-58
2023/05/01 04:46:54;;;;;;;16.20;9.68;;;;;;;;;;5051037;28;20388;-59
2023/05/01 04:49:23;;;;;;;17.02;9.57;;;;;;;;;;5050712;28;20027;-59
2023/05/01 04:51:49;;;;;;;18.48;9.57;;;;;;;;;;5050712;28;20075;-62
2023/05/01 04:54:15;;;;;;;19.20;10.43;;;;;;;;;;5032496;28;20035;-61
2023/05/01 04:56:41;;;;;;;17.45;9.80;;;;;;;;;;5051220;28;20112;-59
2023/05/01 04:59:08;;;;;;;18.88;9.80;;;;;;;;;;5051237;28;20055;-59
2023/05/01 05:01:34;;;;;;;21.05;10.45;;;;;;;;;;5051042;28;20509;-61
2023/05/01 05:04:00;;;;;;;20.42;9.98;;;;;;;;;;5050692;28;20507;-61
2023/05/01 05:06:26;;;;;;;20.02;9.82;;;;;;;;;;5050937;28;20025;-57
2023/05/01 05:08:52;;;;;;;18.02;10.27;;;;;;;;;;5050961;28;20619;-59
2023/05/01 05:11:18;;;;;;;19.60;9.93;;;;;;;;;;5032710;28;20021;-61
2023/05/01 05:13:45;;;;;;;19.23;10.75;;;;;;;;;;5032775;28;20533;-61
2023/05/01 05:16:11;;;;;;;18.77;10.70;;;;;;;;;;5032330;28;20067;-59
2023/05/01 05:18:37;;;;;;;20.17;11.00;;;;;;;;;;5050534;28;20169;-60
2023/05/01 05:21:07;;;;;;;23.92;11.55;;;;;;;;;;5050510;28;20528;-60
2023/05/01 05:23:33;;;;;;;18.05;10.93;;;;;;;;;;5050520;28;20036;-59
2023/05/01 05:26:03;;;;;;;19.25;11.48;;;;;;;;;;5052690;28;20043;-60
2023/05/01 05:28:29;;;;;;;21.05;10.73;;;;;;;;;;5074094;22;20017;-56
2023/05/01 05:30:58;;;;;;;18.55;11.05;;;;;;;;;;5034470;28;20029;-54
2023/05/01 05:33:24;;;;;;;18.13;10.95;;;;;;;;;;5034557;28;20026;-54
2023/05/01 05:35:53;;;;;;;23.98;14.77;;;;;;;;;;5034303;28;20095;-53
2023/05/01 05:38:19;;;;;;;17.23;10.77;;;;;;;;;;5029653;28;20052;-54
2023/05/01 05:40:45;;;;;;;19.00;10.48;;;;;;;;;;5020417;28;20041;-56
2023/05/01 05:43:11;;;;;;;17.42;10.85;;;;;;;;;;5029766;28;20030;-52
2023/05/01 05:45:37;;;;;;;19.80;11.48;;;;;;;;;;5017262;28;20405;-55
2023/05/01 05:48:03;;;;;;;19.73;10.88;;;;;;;;;;5029931;28;20100;-56
2023/05/01 05:50:29;;;;;;;19.02;11.30;;;;;;;;;;5030254;28;20025;-51
2023/05/01 05:52:55;;;;;;;17.52;10.73;;;;;;;;;;5026436;28;20024;-55
2023/05/01 05:55:22;;;;;;;19.25;10.93;;;;;;;;;;5023682;28;20021;-55
2023/05/01 05:57:47;;;;;;;20.50;11.55;;;;;;;;;;5030849;28;20022;-57
2023/05/01 06:00:14;;;;;;;17.95;11.35;;;;;;;;;;5012983;28;20033;-56
2023/05/01 06:02:40;;;;;;;18.77;11.70;;;;;;;;;;5013169;28;20056;-56
2023/05/01 06:05:06;;;;;;;20.33;11.82;;;;;;;;;;5013730;28;20049;-52
2023/05/01 06:07:32;;;;;;;19.23;11.68;;;;;;;;;;5025419;28;20030;-52
2023/05/01 06:10:02;;;;;;;20.83;11.40;;;;;;;;;;5033887;28;20029;-53
2023/05/01 06:12:28;;;;;;;19.17;10.77;;;;;;;;;;5021349;28;20026;-56
2023/05/01 06:14:55;;;;;;;19.83;11.68;;;;;;;;;;5018390;28;20030;-53
2023/05/01 06:17:21;;;;;;;18.38;10.73;;;;;;;;;;5012870;28;20486;-57
2023/05/01 06:19:47;;;;;;;18.13;11.15;;;;;;;;;;5013660;28;20026;-55
2023/05/01 06:22:13;;;;;;;21.85;13.38;;;;;;;;;;5013966;28;20026;-54
2023/05/01 06:24:39;;;;;;;21.25;11.20;;;;;;;;;;5014775;28;20037;-56
2023/05/01 06:27:05;;;;;;;20.00;11.30;;;;;;;;;;5023781;28;20025;-51
2023/05/01 06:29:31;;;;;;;19.98;11.85;;;;;;;;;;5033174;28;20030;-55
2023/05/01 06:31:57;;;;;;;20.00;11.40;;;;;;;;;;5033395;28;20025;-54
2023/05/01 06:34:23;;;;;;;24.00;12.55;;;;;;;;;;5031960;28;20053;-52
2023/05/01 06:36:49;;;;;;;20.95;11.55;;;;;;;;;;5032737;28;20021;-53
2023/05/01 06:39:15;;;;;;;19.30;10.98;;;;;;;;;;5033174;28;20026;-55
2023/05/01 06:41:41;;;;;;;18.33;10.85;;;;;;;;;;5033824;28;20022;-51
2023/05/01 06:44:07;;;;;;;17.75;10.70;;;;;;;;;;5033749;28;20025;-58
2023/05/01 06:46:33;;;;;;;19.45;11.27;;;;;;;;;;5032322;28;20059;-52
2023/05/01 06:48:59;;;;;;;21.33;11.73;;;;;;;;;;5033557;28;20488;-51
2023/05/01 06:51:25;;;;;;;18.70;11.15;;;;;;;;;;5033278;28;20036;-60
2023/05/01 06:53:51;;;;;;;20.05;11.88;;;;;;;;;;5031492;28;20478;-59
2023/05/01 06:56:17;;;;;;;16.52;11.20;;;;;;;;;;5032690;28;20528;-59
2023/05/01 06:58:43;;;;;;;19.63;11.45;;;;;;;;;;5031649;28;20125;-59
2023/05/01 07:01:09;;;;;;;19.15;10.98;;;;;;;;;;5031428;28;20025;-60
2023/05/01 07:03:35;;;;;;;19.50;11.50;;;;;;;;;;5032592;28;20033;-60
2023/05/01 07:06:01;;;;;;;18.58;11.38;;;;;;;;;;5031176;28;20079;-59
2023/05/01 07:08:27;;;;;;;17.85;10.93;;;;;;;;;;5032596;28;20026;-60
2023/05/01 07:10:53;;;;;;;17.45;10.50;;;;;;;;;;5031256;28;20037;-60
2023/05/01 07:13:19;;;;;;;17.83;11.60;;;;;;;;;;5031059;28;20079;-59
2023/05/01 07:15:45;;;;;;;18.05;10.75;;;;;;;;;;5032287;28;20021;-60
2023/05/01 07:18:12;;;;;;;18.45;10.98;;;;;;;;;;5032578;28;20029;-56
2023/05/01 07:20:38;;;;;;;18.83;11.18;;;;;;;;;;5032239;28;20400;-53
2023/05/01 07:23:04;;;;;;;19.63;10.77;;;;;;;;;;5032591;28;20029;-54
2023/05/01 07:25:30;;;;;;;17.90;11.57;;;;;;;;;;5030791;28;20088;-54
2023/05/01 07:27:56;;;;;;;18.45;11.77;;;;;;;;;;5032224;28;20033;-55
2023/05/01 07:30:22;;;;;;;21.63;12.18;;;;;;;;;;5032021;28;20036;-54
2023/05/01 07:32:49;;;;;;;17.17;10.88;;;;;;;;;;5030932;28;20025;-53
2023/05/01 07:35:15;;;;;;;16.83;10.55;;;;;;;;;;5031838;28;20017;-55
2023/05/01 07:37:41;;;;;;;20.48;10.98;;;;;;;;;;5031956;28;20047;-55
2023/05/01 07:40:07;;;;;;;17.88;11.00;;;;;;;;;;5031388;28;20028;-54
2023/05/01 07:42:33;;;;;;;19.63;11.07;;;;;;;;;;5031387;28;20493;-55
2023/05/01 07:44:59;;;;;;;18.10;11.60;;;;;;;;;;5031084;28;20097;-51
2023/05/01 07:47:26;;;;;;;17.88;10.73;;;;;;;;;;5031271;28;20021;-52
2023/05/01 07:49:52;;;;;;;19.77;11.50;;;;;;;;;;5031795;28;20024;-52
2023/05/01 07:52:18;;;;;;;17.08;10.98;;;;;;;;;;5031893;28;20021;-54
2023/05/01 07:54:48;;;;;;;18.13;11.25;;;;;;;;;;5023714;28;20438;-56
2023/05/01 07:57:14;;;;;;;21.67;11.38;;;;;;;;;;5010814;28;20076;-53
2023/05/01 07:59:40;;;;;;;18.95;11.00;;;;;;;;;;5011746;28;20133;-57
2023/05/01 08:02:06;;;;;;;17.08;10.65;;;;;;;;;;5019482;28;20021;-54
2023/05/01 08:04:32;;;;;;;17.63;10.98;;;;;;;;;;5020031;28;20498;-53
2023/05/01 08:07:00;;;;;;;16.98;10.63;;;;;;;;;;5039012;28;20415;-55
2023/05/01 08:09:26;;;;;;;16.70;10.95;;;;;;;;;;5041454;28;20098;-57
2023/05/01 08:11:52;;;;;;;17.20;10.77;;;;;;;;;;5033819;28;20022;-54
2023/05/01 08:14:18;;;;;;;17.48;10.93;;;;;;;;;;5031272;28;20428;-56
2023/05/01 08:16:44;;;;;;;18.80;11.65;;;;;;;;;;5031650;28;20045;-56
2023/05/01 08:19:10;;;;;;;18.42;11.38;;;;;;;;;;5039063;28;20051;-57
2023/05/01 08:21:36;;;;;;;18.85;11.32;;;;;;;;;;5049805;28;20021;-56
2023/05/01 08:24:02;;;;;;;20.30;11.80;;;;;;;;;;5046878;28;20045;-56
2023/05/01 08:26:28;;;;;;;18.33;10.90;;;;;;;;;;5048311;28;20400;-56
2023/05/01 08:28:54;;;;;;;18.38;11.07;;;;;;;;;;5051014;28;20120;-54
2023/05/01 08:31:20;;;;;;;16.90;10.93;;;;;;;;;;5051410;28;20053;-53
2023/05/01 08:33:46;;;;;;;18.55;11.02;;;;;;;;;;5051351;28;20699;-56
2023/05/01 08:36:12;;;;;;;20.85;10.57;;;;;;;;;;5043014;28;20021;-55
2023/05/01 08:38:38;;;;;;;18.70;10.95;;;;;;;;;;5045161;28;20021;-54
2023/05/01 08:41:04;;;;;;;17.52;11.05;;;;;;;;;;5050680;28;20032;-56
2023/05/01 08:43:30;;;;;;;17.98;10.98;;;;;;;;;;5033043;28;20525;-56
2023/05/01 08:45:59;;;;;;;16.75;11.27;;;;;;;;;;5032681;28;20032;-58
2023/05/01 08:48:27;;;;;;;18.40;11.55;;;;;;;;;;5032716;28;20022;-57
2023/05/01 08:50:55;;;;;;;21.85;12.73;;;;;;;;;;5050718;28;20096;-57
2023/05/01 08:53:22;;;;;;;17.20;11.60;;;;;;;;;;5050775;28;20025;-53
2023/05/01 08:55:48;;;;;;;16.35;11.35;;;;;;;;;;5050581;28;20150;-54
2023/05/01 08:58:14;;;;;;;16.83;11.40;;;;;;;;;;5050894;28;20107;-56
2023/05/01 09:00:41;;;;;;;19.55;11.80;;;;;;;;;;5054386;28;20457;-54
2023/05/01 09:03:09;;;;;;;16.60;11.38;;;;;;;;;;5036706;28;20438;-56
2023/05/01 09:05:35;;;;;;;17.45;11.20;;;;;;;;;;5054267;28;20021;-57
2023/05/01 09:08:02;;;;;;;17.45;11.63;;;;;;;;;;5054372;28;20051;-54
2023/05/01 09:10:29;;;;;;;17.38;11.60;;;;;;;;;;5035892;28;20025;-57
2023/05/01 09:12:56;;;;;;;17.83;11.25;;;;;;;;;;5054840;28;20025;-57
2023/05/01 09:15:23;;;;;;;16.40;10.90;;;;;;;;;;5038405;28;20034;-53
2023/05/01 09:17:50;;;;;;;16.58;10.50;;;;;;;;;;5054403;28;20504;-53
2023/05/01 09:20:18;;;;;;;17.08;11.25;;;;;;;;;;5054090;28;20492;-52
2023/05/01 09:22:44;;;;;;;17.20;11.30;;;;;;;;;;5054519;28;20043;-53
2023/05/01 09:25:10;;;;;;;16.45;11.05;;;;;;;;;;5036359;28;20017;-53
2023/05/01 09:27:37;;;;;;;17.05;11.35;;;;;;;;;;5054615;28;20036;-56
2023/05/01 09:30:04;;;;;;;16.30;10.75;;;;;;;;;;5054012;28;20033;-56
2023/05/01 09:32:30;;;;;;;17.33;10.68;;;;;;;;;;5054428;28;20025;-58
2023/05/01 09:35:13;;;;;;;16.27;10.52;;;;;;;;;;5054250;28;20104;-57
2023/05/01 09:37:39;;;;;;;17.45;10.50;;;;;;;;;;5035600;28;20032;-55
2023/05/01 09:40:08;;;;;;;17.88;11.00;;;;;;;;;;5034408;28;20026;-53
2023/05/01 09:42:38;;;;;;;18.50;10.80;;;;;;;;;;5052024;28;20423;-56
2023/05/01 09:45:06;;;;;;;17.65;10.73;;;;;;;;;;5033669;28;20082;-58
2023/05/01 09:47:33;;;;;;;17.38;10.57;;;;;;;;;;5033564;28;20388;-57
2023/05/01 09:49:59;;;;;;;17.65;10.70;;;;;;;;;;5051601;28;20021;-57
2023/05/01 09:52:29;;;;;;;15.82;10.23;;;;;;;;;;5033143;28;20060;-55
2023/05/01 09:55:15;;;;;;;16.92;10.90;;;;;;;;;;5033960;28;20071;-55
2023/05/01 09:57:41;;;;;;;16.48;10.88;;;;;;;;;;5053255;28;20053;-56
2023/05/01 10:00:12;;;;;;;16.05;10.93;;;;;;;;;;5053725;28;20029;-58
2023/05/01 10:02:39;;;;;;;17.83;11.05;;;;;;;;;;5035725;28;20060;-56
2023/05/01 10:05:06;;;;;;;17.92;11.20;;;;;;;;;;5035544;28;20032;-57
2023/05/01 10:07:33;;;;;;;17.42;11.60;;;;;;;;;;5053605;28;20052;-55
2023/05/01 10:09:59;;;;;;;15.85;10.93;;;;;;;;;;5035294;28;20053;-56
2023/05/01 10:12:31;;;;;;;18.30;11.40;;;;;;;;;;5035295;28;20477;-58
2023/05/01 10:14:57;;;;;;;17.00;11.25;;;;;;;;;;5035494;28;20334;-55
2023/05/01 10:17:23;;;;;;;16.10;11.35;;;;;;;;;;5035511;28;20021;-58
2023/05/01 10:19:52;;;;;;;16.80;11.10;;;;;;;;;;5035672;28;20067;-56
2023/05/01 10:22:18;;;;;;;17.10;11.20;;;;;;;;;;5055693;28;20028;-56
2023/05/01 10:24:45;;;;;;;18.00;12.00;;;;;;;;;;5056243;28;20550;-53
2023/05/01 10:27:11;;;;;;;18.80;12.02;;;;;;;;;;5054214;28;20021;-57
2023/05/01 10:29:39;;;;;;;19.02;11.48;;;;;;;;;;5053248;28;20068;-57
2023/05/01 10:32:07;;;;;;;17.65;10.90;;;;;;;;;;5053275;28;20430;-58
2023/05/01 10:34:37;;;;;;;18.75;11.38;;;;;;;;;;5052803;28;20021;-56
2023/05/01 10:37:12;;;;;;;18.40;12.07;;;;;;;;;;5052774;28;20120;-54
2023/05/01 10:39:38;;;;;;;17.63;11.68;;;;;;;;;;5052960;28;20036;-56
2023/05/01 10:42:07;;;;;;;17.83;11.93;;;;;;;;;;5052993;28;20056;-54
2023/05/01 10:44:36;;;;;;;;;;;;;;;;;;5053259;28;20029;-56
2023/05/01 10:47:20;;;;;;;16.92;11.30;;;;;;;;;;5052855;28;20335;-56
2023/05/01 10:50:03;;;;;;;17.30;11.80;;;;;;;;;;5052695;28;20021;-54
2023/05/01 10:52:29;;;;;;;18.65;11.63;;;;;;;;;;5052573;28;20074;-53
2023/05/01 10:55:16;;;;;;;16.45;10.98;;;;;;;;;;5052449;28;20470;-55
2023/05/01 10:57:43;;;;;;;16.35;10.90;;;;;;;;;;5052761;28;20025;-55
2023/05/01 11:00:09;;;;;;;15.65;10.60;;;;;;;;;;5052577;28;20406;-57
2023/05/01 11:02:35;;;;;;;15.68;10.20;;;;;;;;;;5052517;28;20025;-55
2023/05/01 11:05:02;;;;;;;15.10;10.27;;;;;;;;;;5052307;28;20029;-57
2023/05/01 11:07:30;;;;;;;15.18;10.15;;;;;;;;;;5034782;28;20515;-54
2023/05/01 11:10:00;;;;;;;17.35;10.20;;;;;;;;;;5052394;28;20491;-57
2023/05/01 11:12:47;;;;;;;14.70;9.85;;;;;;;;;;5052534;28;20384;-53
2023/05/01 11:15:32;;;;;;;15.63;9.60;;;;;;;;;;5052491;28;20018;-56
2023/05/01 11:17:59;;;;;;;15.40;10.27;;;;;;;;;;5052269;28;20036;-55
2023/05/01 11:20:25;;;;;;;15.65;10.05;;;;;;;;;;5052483;28;20032;-55
2023/05/01 11:22:52;;;;;;;18.75;10.93;;;;;;;;;;5051019;28;20025;-55
2023/05/01 11:25:26;;;;;;;15.45;10.45;;;;;;;;;;5051946;28;20391;-56
2023/05/01 11:27:53;;;;;;;15.70;10.60;;;;;;;;;;5052130;28;20333;-55
2023/05/01 11:30:20;;;;;;;14.88;10.18;;;;;;;;;;5077880;22;20056;-59
2023/05/01 11:32:46;;;;;;;15.90;10.68;;;;;;;;;;5070953;28;20603;-59
2023/05/01 11:35:20;;;;;;;15.18;10.82;;;;;;;;;;5053024;28;20021;-58
2023/05/01 11:37:46;;;;;;;15.75;10.43;;;;;;;;;;5070858;28;20086;-58
2023/05/01 11:40:22;;;;;;;16.05;10.80;;;;;;;;;;5058190;28;20091;-60
2023/05/01 11:42:49;;;;;;;16.67;10.63;;;;;;;;;;5050996;28;20144;-60
2023/05/01 11:45:18;;;;;;;16.42;11.00;;;;;;;;;;5049252;28;20033;-59
2023/05/01 11:47:44;;;;;;;16.73;10.70;;;;;;;;;;5051137;28;20060;-58
2023/05/01 11:50:10;;;;;;;16.05;11.02;;;;;;;;;;5050806;28;20017;-59
2023/05/01 11:52:43;;;;;;;15.15;10.10;;;;;;;;;;5050255;28;20357;-59
2023/05/01 11:55:10;;;;;;;15.48;10.52;;;;;;;;;;5050813;28;20163;-60
2023/05/01 11:57:49;;;;;;;16.42;10.45;;;;;;;;;;5051122;28;20036;-60
2023/05/01 12:00:16;;;;;;;16.77;11.05;;;;;;;;;;5050579;28;20101;-60
2023/05/01 12:02:58;;;;;;;17.90;11.50;;;;;;;;;;5050655;28;20029;-59
2023/05/01 12:05:25;;;;;;;17.73;10.80;;;;;;;;;;5050093;28;20390;-58
2023/05/01 12:07:51;;;;;;;15.10;10.80;;;;;;;;;;5048986;28;20071;-60
2023/05/01 12:10:18;;;;;;;16.77;10.85;;;;;;;;;;5050576;28;20074;-59
2023/05/01 12:12:44;;;;;;;15.52;10.85;;;;;;;;;;5050464;28;20445;-59
2023/05/01 12:15:10;;;;;;;16.92;11.30;;;;;;;;;;5050144;28;20061;-59
2023/05/01 12:17:36;;;;;;;16.73;10.95;;;;;;;;;;5050505;28;20033;-59
2023/05/01 12:20:03;;;;;;;16.17;11.43;;;;;;;;;;5050575;28;20025;-59
2023/05/01 12:22:29;;;;;;;15.13;10.75;;;;;;;;;;5050482;28;20033;-59
2023/05/01 12:24:55;;;;;;;17.33;11.60;;;;;;;;;;5050150;28;20032;-58
2023/05/01 12:27:21;;;;;;;16.02;10.95;;;;;;;;;;5050291;28;20139;-60
2023/05/01 12:29:47;;;;;;;15.98;11.10;;;;;;;;;;5048868;28;20033;-60
2023/05/01 12:32:15;;;;;;;18.10;11.25;;;;;;;;;;5050216;28;20028;-59
2023/05/01 12:34:41;;;;;;;15.97;11.07;;;;;;;;;;5050970;28;20021;-59
2023/05/01 12:37:07;;;;;;;15.70;10.85;;;;;;;;;;5054047;28;20380;-59
2023/05/01 12:39:41;;;;;;;15.70;10.60;;;;;;;;;;5054378;28;20094;-59
2023/05/01 12:42:14;;;;;;;15.45;10.10;;;;;;;;;;5054279;28;20033;-58
2023/05/01 12:44:40;;;;;;;15.65;10.48;;;;;;;;;;5054080;28;20028;-59
2023/05/01 12:47:07;;;;;;;15.18;10.60;;;;;;;;;;5054179;28;20548;-59
2023/05/01 12:49:35;;;;;;;14.85;10.38;;;;;;;;;;5054379;28;20036;-59
2023/05/01 12:52:02;;;;;;;16.10;10.75;;;;;;;;;;5052593;28;20021;-57
2023/05/01 12:54:32;;;;;;;15.20;10.63;;;;;;;;;;5052560;28;20032;-59
2023/05/01 12:57:14;;;;;;;15.55;10.90;;;;;;;;;;5053871;28;20078;-59
2023/05/01 12:59:42;;;;;;;14.43;10.20;;;;;;;;;;5053734;28;20036;-59
2023/05/01 13:02:12;;;;;;;14.80;10.15;;;;;;;;;;5053996;28;20028;-59
2023/05/01 13:04:38;;;;;;;15.18;10.93;;;;;;;;;;5053605;28;20381;-58
2023/05/01 13:07:11;;;;;;;15.63;10.68;;;;;;;;;;5053562;28;20028;-61
2023/05/01 13:09:38;;;;;;;16.17;11.40;;;;;;;;;;5052406;28;20112;-60
2023/05/01 13:12:04;;;;;;;16.88;11.00;;;;;;;;;;5053991;28;20021;-59
2023/05/01 13:14:40;;;;;;;15.07;10.63;;;;;;;;;;5053398;28;20021;-59
2023/05/01 13:17:07;;;;;;;17.58;11.00;;;;;;;;;;5053549;28;20033;-58
2023/05/01 13:19:33;;;;;;;14.93;10.40;;;;;;;;;;5053444;28;20040;-59
2023/05/01 13:21:59;;;;;;;14.65;10.48;;;;;;;;;;5053677;28;20031;-60
2023/05/01 13:24:38;;;;;;;15.85;11.00;;;;;;;;;;5053165;28;20044;-57
2023/05/01 13:27:05;;;;;;;14.70;10.50;;;;;;;;;;5053417;28;20029;-58
2023/05/01 13:29:32;;;;;;;15.40;10.80;;;;;;;;;;5053119;28;20025;-60
2023/05/01 13:31:58;;;;;;;15.35;10.63;;;;;;;;;;5051119;28;20392;-59
2023/05/01 13:34:26;;;;;;;15.07;10.65;;;;;;;;;;5045293;28;20132;-60
2023/05/01 13:36:53;;;;;;;16.08;11.15;;;;;;;;;;5048212;28;20526;-59
2023/05/01 13:39:19;;;;;;;15.63;10.70;;;;;;;;;;5052788;28;20558;-59
2023/05/01 13:41:45;;;;;;;15.02;10.80;;;;;;;;;;5052849;28;20486;-59
2023/05/01 13:44:12;;;;;;;15.32;10.63;;;;;;;;;;5052788;28;20029;-58
2023/05/01 13:46:43;;;;;;;15.40;10.75;;;;;;;;;;5045201;28;20033;-59
2023/05/01 13:49:09;;;;;;;15.73;10.48;;;;;;;;;;5052933;28;20025;-57
2023/05/01 13:51:42;;;;;;;16.80;10.50;;;;;;;;;;5052645;28;20021;-59
2023/05/01 13:54:08;;;;;;;16.83;11.10;;;;;;;;;;5052670;28;20109;-58
2023/05/01 13:56:38;;;;;;;15.70;11.00;;;;;;;;;;5051323;28;20120;-58
2023/05/01 13:59:08;;;;;;;17.70;11.30;;;;;;;;;;5052461;28;20028;-58
2023/05/01 14:01:45;;;;;;;15.90;11.07;;;;;;;;;;5051696;28;20065;-60
2023/05/01 14:04:19;;;;;;;16.13;10.88;;;;;;;;;;5052485;28;20092;-57
2023/05/01 14:06:47;;;;;;;15.38;10.63;;;;;;;;;;5052397;28;20029;-58
2023/05/01 14:09:15;;;;;;;16.95;11.40;;;;;;;;;;5052005;28;20021;-57
2023/05/01 14:11:43;;;;;;;16.75;11.15;;;;;;;;;;5051917;28;20496;-57
2023/05/01 14:14:09;;;;;;;;;;;;;;;;;;5028418;28;20489;-58
2023/05/01 14:16:35;;;;;;;18.42;10.90;;;;;;;;;;5041480;28;19916;-59
2023/05/01 14:19:02;;;;;;;16.00;10.73;;;;;;;;;;5044091;28;20017;-58
2023/05/01 14:21:28;;;;;;;15.35;10.48;;;;;;;;;;5043609;28;20025;-58
2023/05/01 14:23:55;;;;;;;15.25;10.85;;;;;;;;;;5042464;28;20514;-58